Time;durP1;ratioP1;P1;durP2;ratioP2;P2;SDS_P1;SDS_P2;PMS_P1;PMS_P2;Temp;Humidity;BMP_temperature;BMP_pressure;BME280_temperature;BME280_humidity;BME280_pressure;Samples;Min_cycle;Max_cycle;Signal;HPM_P1;HPM_P2
2022/01/24 00:01:05;;;;;;;36.30;18.17;;;;;;;;;;5075059;28;20462;-70
2022/01/24 00:03:32;;;;;;;31.27;18.37;;;;;;;;;;5074701;28;20452;-69
2022/01/24 00:06:00;;;;;;;31.07;18.47;;;;;;;;;;5074880;28;20844;-69
2022/01/24 00:08:29;;;;;;;33.37;18.10;;;;;;;;;;5074673;28;20436;-69
2022/01/24 00:11:02;;;;;;;37.90;20.40;;;;;;;;;;5074604;28;20545;-69
2022/01/24 00:16:28;;;;;;;33.67;17.97;;;;;;;;;;5074666;28;20529;-69
2022/01/24 00:27:09;;;;;;;31.53;18.20;;;;;;;;;;5074360;28;20447;-69
2022/01/24 00:29:36;;;;;;;34.07;19.70;;;;;;;;;;5074427;28;20854;-69
2022/01/24 00:32:04;;;;;;;44.97;20.40;;;;;;;;;;5074204;28;20459;-69
2022/01/24 00:34:32;;;;;;;43.90;21.23;;;;;;;;;;5074349;28;20448;-69
2022/01/24 00:37:01;;;;;;;29.17;18.30;;;;;;;;;;5074447;28;20829;-69
2022/01/24 00:39:28;;;;;;;30.57;17.30;;;;;;;;;;5074164;28;20948;-69
2022/01/24 00:42:07;;;;;;;35.20;18.13;;;;;;;;;;5074305;28;20455;-69
2022/01/24 00:44:46;;;;;;;34.53;18.03;;;;;;;;;;5074011;28;20436;-69
2022/01/24 00:47:19;;;;;;;27.47;16.00;;;;;;;;;;5074270;28;20513;-69
2022/01/24 00:52:58;;;;;;;34.63;17.43;;;;;;;;;;5073889;28;20476;-69
2022/01/24 00:53:11;;;;;;;28.07;16.63;;;;;;;;;;5073786;28;20428;-69
2022/01/24 00:55:38;;;;;;;30.20;16.87;;;;;;;;;;5073862;28;20858;-69
2022/01/24 00:58:06;;;;;;;27.83;16.40;;;;;;;;;;5074040;28;20929;-69
2022/01/24 01:00:33;;;;;;;33.63;17.87;;;;;;;;;;5073922;28;20454;-69
2022/01/24 01:03:00;;;;;;;38.03;19.30;;;;;;;;;;5073773;28;20956;-69
2022/01/24 01:05:39;;;;;;;34.43;19.73;;;;;;;;;;5073616;28;20471;-69
2022/01/24 01:18:07;;;;;;;31.67;16.23;;;;;;;;;;5073854;28;20458;-69
2022/01/24 01:19:15;;;;;;;30.43;17.00;;;;;;;;;;5073471;28;20439;-69
2022/01/24 01:21:42;;;;;;;33.53;18.73;;;;;;;;;;5073577;28;20967;-69
2022/01/24 01:24:10;;;;;;;30.00;16.93;;;;;;;;;;5073691;28;20436;-69
2022/01/24 01:26:42;;;;;;;33.63;18.40;;;;;;;;;;5072709;28;20525;-69
2022/01/24 01:29:15;;;;;;;38.17;18.70;;;;;;;;;;5073364;28;20536;-69
2022/01/24 01:31:48;;;;;;;28.10;16.87;;;;;;;;;;5073627;28;20447;-69
2022/01/24 01:34:32;;;;;;;29.77;16.73;;;;;;;;;;5073190;28;20441;-69
2022/01/24 01:56:06;;;;;;;43.10;18.60;;;;;;;;;;5063982;28;20451;-69
2022/01/24 01:58:33;;;;;;;35.93;19.30;;;;;;;;;;5073241;28;20452;-69
2022/01/24 02:01:01;;;;;;;40.53;19.37;;;;;;;;;;5072946;28;20454;-69
2022/01/24 02:03:29;;;;;;;42.50;20.37;;;;;;;;;;5073219;28;20813;-69
2022/01/24 02:05:56;;;;;;;39.57;19.97;;;;;;;;;;5073219;28;20474;-70
2022/01/24 02:08:24;;;;;;;37.37;19.10;;;;;;;;;;5073245;28;20889;-69
2022/01/24 02:10:51;;;;;;;42.70;20.00;;;;;;;;;;5073108;28;20856;-69
2022/01/24 02:13:21;;;;;;;35.07;20.30;;;;;;;;;;5073156;28;20821;-69
2022/01/24 02:15:58;;;;;;;40.73;21.83;;;;;;;;;;5072747;28;20559;-69
2022/01/24 02:18:32;;;;;;;42.90;22.23;;;;;;;;;;5073124;28;20483;-69
2022/01/24 02:21:09;;;;;;;43.20;22.50;;;;;;;;;;5072799;28;20439;-69
2022/01/24 02:23:42;;;;;;;47.80;24.50;;;;;;;;;;5073099;28;20958;-69
2022/01/24 02:26:12;;;;;;;39.57;20.13;;;;;;;;;;5073050;28;20476;-69
2022/01/24 02:28:49;;;;;;;42.70;18.70;;;;;;;;;;5072644;28;20451;-69
2022/01/24 02:31:37;;;;;;;42.20;21.50;;;;;;;;;;5072896;28;20467;-69
2022/01/24 02:34:05;;;;;;;44.93;20.43;;;;;;;;;;5072699;28;20443;-69
2022/01/24 02:36:32;;;;;;;42.90;20.77;;;;;;;;;;5072337;28;20483;-69
2022/01/24 02:39:13;;;;;;;40.83;22.60;;;;;;;;;;5073370;28;20489;-69
2022/01/24 02:49:54;;;;;;;43.90;22.10;;;;;;;;;;5055031;28;20483;-69
2022/01/24 02:52:24;;;;;;;39.13;20.40;;;;;;;;;;5076029;28;20462;-69
2022/01/24 02:54:53;;;;;;;36.43;18.93;;;;;;;;;;5075773;28;20482;-69
2022/01/24 02:57:21;;;;;;;41.20;19.73;;;;;;;;;;5075898;28;21043;-69
2022/01/24 02:59:48;;;;;;;37.87;20.50;;;;;;;;;;5075862;28;20474;-69
2022/01/24 03:02:15;;;;;;;39.50;20.90;;;;;;;;;;5076067;28;20451;-69
2022/01/24 03:04:43;;;;;;;36.67;19.13;;;;;;;;;;5075214;28;20459;-69
2022/01/24 03:07:10;;;;;;;33.20;17.33;;;;;;;;;;5075695;28;20467;-69
2022/01/24 03:09:37;;;;;;;39.83;19.13;;;;;;;;;;5075495;28;20483;-69
2022/01/24 03:12:08;;;;;;;30.77;16.77;;;;;;;;;;5075679;28;20447;-69
2022/01/24 03:14:36;;;;;;;33.73;16.70;;;;;;;;;;5075414;28;20542;-69
2022/01/24 03:17:04;;;;;;;31.23;17.63;;;;;;;;;;5075430;28;20474;-69
2022/01/24 03:19:31;;;;;;;66.70;17.37;;;;;;;;;;5075530;28;20458;-69
2022/01/24 03:21:59;;;;;;;59.50;19.03;;;;;;;;;;5075433;28;20451;-69
2022/01/24 03:24:26;;;;;;;51.97;16.47;;;;;;;;;;5075227;28;20462;-69
2022/01/24 03:26:53;;;;;;;45.00;22.90;;;;;;;;;;5075329;28;20986;-69
2022/01/24 03:29:21;;;;;;;70.63;22.10;;;;;;;;;;5075273;28;20458;-69
2022/01/24 03:31:49;;;;;;;85.27;24.53;;;;;;;;;;5075223;28;20467;-69
2022/01/24 03:34:16;;;;;;;81.63;25.27;;;;;;;;;;5075084;28;20451;-69
2022/01/24 03:36:43;;;;;;;115.83;25.70;;;;;;;;;;5075200;28;20468;-69
2022/01/24 03:39:11;;;;;;;119.40;25.00;;;;;;;;;;5075117;28;20536;-69
2022/01/24 03:41:40;;;;;;;77.13;22.67;;;;;;;;;;5075090;28;20509;-69
2022/01/24 03:44:07;;;;;;;63.33;26.07;;;;;;;;;;5075083;28;20505;-69
2022/01/24 03:47:00;;;;;;;106.70;27.13;;;;;;;;;;5074968;28;20533;-69
2022/01/24 03:49:46;;;;;;;64.10;19.40;;;;;;;;;;5074788;28;20493;-69
2022/01/24 03:52:13;;;;;;;116.03;25.57;;;;;;;;;;5075085;28;20456;-69
2022/01/24 03:54:43;;;;;;;73.97;23.23;;;;;;;;;;5074639;28;20451;-69
2022/01/24 03:57:10;;;;;;;87.80;23.93;;;;;;;;;;5074511;28;20507;-69
2022/01/24 03:59:38;;;;;;;117.23;29.07;;;;;;;;;;5074884;28;20452;-69
2022/01/24 04:02:07;;;;;;;70.33;20.57;;;;;;;;;;5074816;28;20443;-69
2022/01/24 04:04:34;;;;;;;121.07;24.37;;;;;;;;;;5073979;28;20452;-69
2022/01/24 04:07:01;;;;;;;91.10;21.73;;;;;;;;;;5074716;28;20467;-69
2022/01/24 04:09:28;;;;;;;111.43;23.53;;;;;;;;;;5074666;28;20455;-69
2022/01/24 04:11:57;;;;;;;100.20;21.80;;;;;;;;;;5074630;28;20475;-69
2022/01/24 04:14:31;;;;;;;111.00;26.63;;;;;;;;;;5074375;28;20491;-69
2022/01/24 04:17:20;;;;;;;78.67;23.63;;;;;;;;;;5074461;28;20534;-69
2022/01/24 04:22:34;;;;;;;115.50;24.23;;;;;;;;;;5051421;28;20447;-69
2022/01/24 04:25:04;;;;;;;56.03;19.23;;;;;;;;;;5073961;28;20470;-69
2022/01/24 04:27:31;;;;;;;58.23;19.90;;;;;;;;;;5074118;28;20460;-69
2022/01/24 04:29:58;;;;;;;43.80;17.10;;;;;;;;;;5074127;28;20475;-69
2022/01/24 04:32:26;;;;;;;118.00;22.67;;;;;;;;;;5074279;28;20451;-69
2022/01/24 04:34:54;;;;;;;90.70;24.27;;;;;;;;;;5074061;28;20451;-71
2022/01/24 04:37:21;;;;;;;50.80;17.17;;;;;;;;;;5074043;28;20471;-71
2022/01/24 04:39:48;;;;;;;42.23;17.80;;;;;;;;;;5073678;28;20468;-71
2022/01/24 04:42:24;;;;;;;74.43;19.27;;;;;;;;;;5073922;28;20528;-71
2022/01/24 04:45:09;;;;;;;135.07;22.50;;;;;;;;;;5073602;28;20538;-71
2022/01/24 04:50:18;;;;;;;44.53;19.20;;;;;;;;;;5073803;28;20456;-71
2022/01/24 04:50:42;;;;;;;29.87;17.30;;;;;;;;;;5073804;28;20567;-71
2022/01/24 04:53:15;;;;;;;66.63;17.63;;;;;;;;;;5073966;28;20491;-71
2022/01/24 04:55:42;;;;;;;60.53;19.20;;;;;;;;;;5073358;28;20483;-71
2022/01/24 04:58:10;;;;;;;42.53;17.50;;;;;;;;;;5073870;28;20451;-71
2022/01/24 05:00:37;;;;;;;42.17;17.77;;;;;;;;;;5073485;28;20455;-71
2022/01/24 05:03:04;;;;;;;37.97;17.93;;;;;;;;;;5073024;28;20877;-71
2022/01/24 05:05:32;;;;;;;39.80;18.10;;;;;;;;;;5072981;28;20483;-71
2022/01/24 05:08:04;;;;;;;47.10;19.67;;;;;;;;;;5073556;28;20941;-71
2022/01/24 05:10:37;;;;;;;35.70;17.10;;;;;;;;;;5073629;28;20918;-71
2022/01/24 05:21:51;;;;;;;24.40;14.13;;;;;;;;;;5031263;28;20791;-71
2022/01/24 05:24:17;;;;;;;25.47;14.70;;;;;;;;;;5069201;28;20456;-71
2022/01/24 05:26:45;;;;;;;25.10;14.67;;;;;;;;;;5073050;28;20478;-71
2022/01/24 05:29:12;;;;;;;27.00;15.90;;;;;;;;;;5073295;28;20452;-71
2022/01/24 05:31:39;;;;;;;30.77;18.10;;;;;;;;;;5073033;28;20483;-71
2022/01/24 05:34:06;;;;;;;26.93;15.87;;;;;;;;;;5073067;28;20475;-71
2022/01/24 05:36:34;;;;;;;31.20;15.97;;;;;;;;;;5073025;28;20475;-71
2022/01/24 05:39:01;;;;;;;26.37;13.93;;;;;;;;;;5072984;28;20462;-73
2022/01/24 05:41:29;;;;;;;23.67;14.43;;;;;;;;;;5073087;28;20448;-71
2022/01/24 05:43:56;;;;;;;25.30;14.93;;;;;;;;;;5072815;28;20458;-71
2022/01/24 05:46:23;;;;;;;22.80;14.20;;;;;;;;;;5072863;28;20471;-71
2022/01/24 05:48:50;;;;;;;22.13;14.23;;;;;;;;;;5073016;28;20448;-73
2022/01/24 05:51:17;;;;;;;27.63;16.13;;;;;;;;;;5072823;28;20491;-71
2022/01/24 05:53:46;;;;;;;27.93;16.10;;;;;;;;;;5072667;28;20820;-71
2022/01/24 05:56:13;;;;;;;33.27;16.47;;;;;;;;;;5072881;28;20478;-71
2022/01/24 05:58:40;;;;;;;32.33;18.17;;;;;;;;;;5072850;28;20447;-71
2022/01/24 06:01:07;;;;;;;37.57;19.20;;;;;;;;;;5072926;28;20981;-71
2022/01/24 06:03:34;;;;;;;30.57;17.50;;;;;;;;;;5072832;28;20451;-71
2022/01/24 06:06:01;;;;;;;24.57;14.93;;;;;;;;;;5072339;28;20468;-71
2022/01/24 06:08:28;;;;;;;23.20;15.47;;;;;;;;;;5073000;28;20440;-71
2022/01/24 06:10:58;;;;;;;25.23;16.03;;;;;;;;;;5072880;28;20492;-71
2022/01/24 06:13:25;;;;;;;30.53;16.90;;;;;;;;;;5074546;28;20546;-71
2022/01/24 06:15:53;;;;;;;24.63;16.50;;;;;;;;;;5076628;28;20478;-71
2022/01/24 06:18:24;;;;;;;31.57;18.43;;;;;;;;;;5076871;28;20443;-71
2022/01/24 06:20:51;;;;;;;27.70;16.60;;;;;;;;;;5076771;28;20462;-71
2022/01/24 06:23:18;;;;;;;27.47;16.40;;;;;;;;;;5076787;28;20455;-71
2022/01/24 06:25:46;;;;;;;24.90;14.97;;;;;;;;;;5076415;28;20478;-71
2022/01/24 06:28:14;;;;;;;23.27;14.40;;;;;;;;;;5076735;28;20455;-71
2022/01/24 06:30:41;;;;;;;29.43;17.20;;;;;;;;;;5076608;28;21019;-71
2022/01/24 06:33:08;;;;;;;26.90;14.70;;;;;;;;;;5076394;28;20459;-71
2022/01/24 06:35:35;;;;;;;35.50;16.80;;;;;;;;;;5076139;28;20476;-71
2022/01/24 06:38:03;;;;;;;23.13;14.73;;;;;;;;;;5076518;28;20456;-71
2022/01/24 06:40:30;;;;;;;21.80;14.90;;;;;;;;;;5076238;28;20464;-72
2022/01/24 06:42:57;;;;;;;21.40;14.53;;;;;;;;;;5076323;28;20820;-71
2022/01/24 06:45:25;;;;;;;43.10;25.10;;;;;;;;;;5075991;28;20470;-71
2022/01/24 06:47:52;;;;;;;26.13;16.53;;;;;;;;;;5076000;28;20468;-71
2022/01/24 06:50:19;;;;;;;25.53;16.07;;;;;;;;;;5076194;28;20940;-71
2022/01/24 06:52:48;;;;;;;30.63;17.53;;;;;;;;;;5076080;28;20467;-71
2022/01/24 06:55:15;;;;;;;29.60;17.00;;;;;;;;;;5075685;28;20951;-71
2022/01/24 06:57:42;;;;;;;27.80;16.50;;;;;;;;;;5075922;28;20951;-71
2022/01/24 07:00:11;;;;;;;26.50;17.37;;;;;;;;;;5075941;28;20447;-71
2022/01/24 07:02:39;;;;;;;32.70;19.40;;;;;;;;;;5075783;28;20448;-71
2022/01/24 07:05:06;;;;;;;30.57;19.87;;;;;;;;;;5075047;28;20451;-71
2022/01/24 07:07:34;;;;;;;37.50;20.47;;;;;;;;;;5075753;28;20459;-71
2022/01/24 07:10:01;;;;;;;34.80;19.63;;;;;;;;;;5075681;28;20491;-71
2022/01/24 07:12:28;;;;;;;31.70;18.33;;;;;;;;;;5075661;28;20487;-71
2022/01/24 07:14:56;;;;;;;31.27;20.37;;;;;;;;;;5075585;28;20463;-71
2022/01/24 07:17:44;;;;;;;31.30;17.83;;;;;;;;;;5075778;28;20538;-71
2022/01/24 07:20:13;;;;;;;30.40;18.00;;;;;;;;;;5075628;28;20460;-72
2022/01/24 07:22:40;;;;;;;24.63;15.77;;;;;;;;;;5075636;28;20820;-72
2022/01/24 07:25:08;;;;;;;27.43;15.30;;;;;;;;;;5074492;28;20448;-71
2022/01/24 07:27:35;;;;;;;27.67;17.40;;;;;;;;;;5075550;28;20455;-71
2022/01/24 07:30:03;;;;;;;27.20;17.07;;;;;;;;;;5075460;28;20455;-71
2022/01/24 07:32:30;;;;;;;31.83;19.53;;;;;;;;;;5075200;28;20494;-71
2022/01/24 07:34:58;;;;;;;26.57;16.90;;;;;;;;;;5075194;28;20458;-71
2022/01/24 07:37:26;;;;;;;28.83;16.33;;;;;;;;;;5075412;28;20456;-71
2022/01/24 07:39:53;;;;;;;28.10;16.60;;;;;;;;;;5075282;28;20982;-71
2022/01/24 07:42:29;;;;;;;23.50;15.50;;;;;;;;;;5075268;28;20451;-71
2022/01/24 07:44:56;;;;;;;25.73;17.07;;;;;;;;;;5075061;28;20553;-71
2022/01/24 07:47:23;;;;;;;29.40;18.30;;;;;;;;;;5075303;28;20818;-71
2022/01/24 07:49:50;;;;;;;59.20;21.40;;;;;;;;;;5074610;28;20475;-71
2022/01/24 07:52:18;;;;;;;46.73;23.27;;;;;;;;;;5074848;28;20487;-71
2022/01/24 07:54:46;;;;;;;134.30;36.80;;;;;;;;;;5074756;28;20452;-71
2022/01/24 07:57:13;;;;;;;118.13;23.43;;;;;;;;;;5074922;28;20472;-71
2022/01/24 07:59:40;;;;;;;54.93;23.07;;;;;;;;;;5074868;28;20450;-71
2022/01/24 08:02:07;;;;;;;42.60;21.07;;;;;;;;;;5074818;28;20451;-71
2022/01/24 08:04:34;;;;;;;72.40;21.90;;;;;;;;;;5074136;28;20448;-71
2022/01/24 08:07:01;;;;;;;52.97;20.37;;;;;;;;;;5074743;28;20483;-71
2022/01/24 08:09:29;;;;;;;144.33;27.27;;;;;;;;;;5074902;28;20463;-71
2022/01/24 08:11:57;;;;;;;165.00;30.10;;;;;;;;;;5074672;28;20479;-71
2022/01/24 08:14:24;;;;;;;72.20;22.90;;;;;;;;;;5074534;28;20980;-71
2022/01/24 08:16:51;;;;;;;79.33;26.53;;;;;;;;;;5074481;28;20472;-72
2022/01/24 08:19:18;;;;;;;81.23;25.80;;;;;;;;;;5074691;28;20455;-71
2022/01/24 08:21:45;;;;;;;114.10;28.70;;;;;;;;;;5074408;28;20459;-71
2022/01/24 08:24:12;;;;;;;97.40;24.93;;;;;;;;;;5074460;28;20455;-71
2022/01/24 08:26:40;;;;;;;165.03;35.20;;;;;;;;;;5074288;28;20484;-71
2022/01/24 08:29:08;;;;;;;174.13;36.70;;;;;;;;;;5074250;28;20454;-71
2022/01/24 08:31:37;;;;;;;225.07;34.80;;;;;;;;;;5074193;28;20475;-71
2022/01/24 08:34:04;;;;;;;173.93;38.97;;;;;;;;;;5074188;28;20467;-71
2022/01/24 08:36:31;;;;;;;108.63;27.40;;;;;;;;;;5074076;28;20468;-71
2022/01/24 08:39:05;;;;;;;105.10;26.77;;;;;;;;;;5074056;28;20462;-71
2022/01/24 08:41:42;;;;;;;117.77;23.07;;;;;;;;;;5074203;28;20459;-71
2022/01/24 08:44:20;;;;;;;89.17;23.63;;;;;;;;;;5073796;28;20516;-71
2022/01/24 08:46:48;;;;;;;233.47;32.33;;;;;;;;;;5073939;28;21071;-71
2022/01/24 08:49:16;;;;;;;140.80;26.57;;;;;;;;;;5073750;28;20444;-71
2022/01/24 08:51:43;;;;;;;86.80;21.17;;;;;;;;;;5073804;28;20495;-71
2022/01/24 08:54:11;;;;;;;134.13;24.10;;;;;;;;;;5073738;28;20499;-71
2022/01/24 08:56:38;;;;;;;134.20;26.13;;;;;;;;;;5073641;28;20471;-71
2022/01/24 08:59:05;;;;;;;181.93;26.43;;;;;;;;;;5073833;28;20882;-71
2022/01/24 09:01:34;;;;;;;132.63;22.57;;;;;;;;;;5073686;28;20493;-71
2022/01/24 09:04:01;;;;;;;150.00;23.40;;;;;;;;;;5073307;28;20459;-71
2022/01/24 09:06:29;;;;;;;83.27;20.90;;;;;;;;;;5073464;28;20472;-71
2022/01/24 09:08:59;;;;;;;74.10;20.90;;;;;;;;;;5073442;28;20459;-71
2022/01/24 09:11:28;;;;;;;62.87;20.90;;;;;;;;;;5073509;28;20491;-71
2022/01/24 09:13:56;;;;;;;65.43;21.07;;;;;;;;;;5073235;28;20447;-71
2022/01/24 09:16:23;;;;;;;63.77;21.13;;;;;;;;;;5073329;28;20475;-71
2022/01/24 09:18:52;;;;;;;98.33;23.50;;;;;;;;;;5073446;28;20513;-71
2022/01/24 09:21:19;;;;;;;102.27;23.17;;;;;;;;;;5073255;28;20460;-71
2022/01/24 09:23:47;;;;;;;39.73;17.80;;;;;;;;;;5072985;28;20455;-71
2022/01/24 09:26:14;;;;;;;141.80;23.60;;;;;;;;;;5073173;28;20863;-71
2022/01/24 09:28:42;;;;;;;111.67;29.97;;;;;;;;;;5073155;28;20451;-71
2022/01/24 09:31:09;;;;;;;92.03;31.73;;;;;;;;;;5073318;28;20459;-71
2022/01/24 09:33:36;;;;;;;84.63;22.40;;;;;;;;;;5073092;28;20451;-71
2022/01/24 09:36:05;;;;;;;110.80;26.40;;;;;;;;;;5073112;28;20467;-71
2022/01/24 09:38:33;;;;;;;35.50;15.93;;;;;;;;;;5072978;28;20447;-71
2022/01/24 09:41:01;;;;;;;65.60;20.07;;;;;;;;;;5073235;28;20807;-71
2022/01/24 09:43:28;;;;;;;37.70;19.60;;;;;;;;;;5072968;28;20448;-70
2022/01/24 09:45:56;;;;;;;51.00;19.47;;;;;;;;;;5073256;28;21015;-71
2022/01/24 09:48:24;;;;;;;77.20;22.13;;;;;;;;;;5072611;28;20467;-71
2022/01/24 09:50:52;;;;;;;41.57;19.70;;;;;;;;;;5072816;28;20479;-71
2022/01/24 09:53:22;;;;;;;39.87;17.43;;;;;;;;;;5073078;28;20537;-71
2022/01/24 09:55:49;;;;;;;42.90;21.90;;;;;;;;;;5072683;28;20479;-71
2022/01/24 09:58:16;;;;;;;56.87;20.07;;;;;;;;;;5073003;28;20452;-71
2022/01/24 10:00:43;;;;;;;41.37;20.07;;;;;;;;;;5072876;28;20974;-71
2022/01/24 10:03:12;;;;;;;35.70;20.30;;;;;;;;;;5072969;28;20826;-71
2022/01/24 10:05:40;;;;;;;34.13;20.50;;;;;;;;;;5072167;28;20483;-71
2022/01/24 10:08:07;;;;;;;37.47;20.97;;;;;;;;;;5072865;28;20455;-71
2022/01/24 10:10:38;;;;;;;34.40;18.30;;;;;;;;;;5072736;28;20448;-71
2022/01/24 10:19:08;;;;;;;35.03;19.77;;;;;;;;;;5072896;28;20415;-74
2022/01/24 10:21:39;;;;;;;32.97;20.40;;;;;;;;;;5072741;28;20455;-74
2022/01/24 10:24:06;;;;;;;38.40;23.47;;;;;;;;;;5072684;28;20459;-73
2022/01/24 10:26:35;;;;;;;33.30;18.47;;;;;;;;;;5072636;28;20480;-70
2022/01/24 10:29:02;;;;;;;40.20;22.30;;;;;;;;;;5072673;28;20817;-73
2022/01/24 10:31:29;;;;;;;45.80;24.83;;;;;;;;;;5072606;28;20451;-71
2022/01/24 10:34:06;;;;;;;39.63;21.47;;;;;;;;;;5072412;28;20505;-70
2022/01/24 10:36:40;;;;;;;28.07;18.03;;;;;;;;;;5072565;28;20470;-71
2022/01/24 10:39:11;;;;;;;30.73;18.90;;;;;;;;;;5072566;28;20454;-71
2022/01/24 10:41:54;;;;;;;30.77;17.50;;;;;;;;;;5072378;28;20454;-71
2022/01/24 10:44:31;;;;;;;30.13;18.73;;;;;;;;;;5072276;28;20831;-71
2022/01/24 10:47:15;;;;;;;29.83;18.60;;;;;;;;;;5072580;28;20470;-71
2022/01/24 10:49:44;;;;;;;23.70;14.90;;;;;;;;;;5072591;28;20550;-71
2022/01/24 10:52:12;;;;;;;24.93;17.87;;;;;;;;;;5072633;28;20490;-71
2022/01/24 10:54:39;;;;;;;27.60;18.07;;;;;;;;;;5072430;28;20932;-71
2022/01/24 10:57:07;;;;;;;26.67;16.97;;;;;;;;;;5072646;28;20475;-71
2022/01/24 10:59:36;;;;;;;26.10;18.27;;;;;;;;;;5072717;28;20456;-71
2022/01/24 11:02:03;;;;;;;22.93;16.23;;;;;;;;;;5076016;28;20447;-71
2022/01/24 11:04:33;;;;;;;27.37;16.87;;;;;;;;;;5075552;28;20459;-71
2022/01/24 11:07:02;;;;;;;26.57;16.60;;;;;;;;;;5075869;28;20992;-70
2022/01/24 11:09:30;;;;;;;21.33;15.07;;;;;;;;;;5076001;28;21018;-71
2022/01/24 11:11:59;;;;;;;25.20;16.57;;;;;;;;;;5075843;28;20447;-73
2022/01/24 11:14:27;;;;;;;26.57;15.67;;;;;;;;;;5075976;28;20952;-73
2022/01/24 11:16:56;;;;;;;30.37;16.60;;;;;;;;;;5075710;28;20470;-73
2022/01/24 11:19:28;;;;;;;26.23;16.00;;;;;;;;;;5075743;28;20547;-71
2022/01/24 11:21:55;;;;;;;29.73;17.00;;;;;;;;;;5075895;28;20967;-71
2022/01/24 11:24:29;;;;;;;25.13;16.23;;;;;;;;;;5075639;28;20455;-71
2022/01/24 11:26:56;;;;;;;25.53;16.97;;;;;;;;;;5075662;28;20987;-71
2022/01/24 11:29:24;;;;;;;26.50;18.17;;;;;;;;;;5075577;28;20520;-71
2022/01/24 11:31:57;;;;;;;30.57;19.10;;;;;;;;;;5075638;28;20456;-71
2022/01/24 11:34:32;;;;;;;31.40;18.03;;;;;;;;;;5075348;28;20452;-72
2022/01/24 11:36:59;;;;;;;28.83;18.40;;;;;;;;;;5075322;28;20474;-72
2022/01/24 11:39:26;;;;;;;27.00;18.77;;;;;;;;;;5075131;28;20464;-72
2022/01/24 11:41:53;;;;;;;30.93;17.80;;;;;;;;;;5075190;28;20464;-71
2022/01/24 11:44:22;;;;;;;30.67;19.20;;;;;;;;;;5074911;28;20451;-71
2022/01/24 11:46:52;;;;;;;30.97;19.30;;;;;;;;;;5074887;28;20570;-71
2022/01/24 11:49:27;;;;;;;27.43;16.63;;;;;;;;;;5075028;28;20456;-71
2022/01/24 11:52:03;;;;;;;33.17;21.17;;;;;;;;;;5074997;28;20466;-71
2022/01/24 11:54:33;;;;;;;27.53;17.23;;;;;;;;;;5074864;28;20458;-71
2022/01/24 11:57:16;;;;;;;35.87;20.90;;;;;;;;;;5075033;28;20991;-70
2022/01/24 11:59:43;;;;;;;23.33;15.87;;;;;;;;;;5074864;28;20834;-71
2022/01/24 12:02:11;;;;;;;26.13;17.57;;;;;;;;;;5075178;28;20815;-71
2022/01/24 12:04:53;;;;;;;27.20;17.60;;;;;;;;;;5074521;28;20455;-71
2022/01/24 12:07:22;;;;;;;25.27;16.40;;;;;;;;;;5074827;28;20972;-71
2022/01/24 12:09:49;;;;;;;23.77;16.50;;;;;;;;;;5074623;28;20460;-71
2022/01/24 12:12:35;;;;;;;25.80;16.63;;;;;;;;;;5074445;28;20452;-71
2022/01/24 12:15:02;;;;;;;26.90;17.43;;;;;;;;;;5074798;28;20525;-71
2022/01/24 12:17:44;;;;;;;21.87;15.03;;;;;;;;;;5074839;28;20451;-71
2022/01/24 12:20:29;;;;;;;26.93;16.07;;;;;;;;;;5074700;28;20824;-71
2022/01/24 12:22:57;;;;;;;28.30;17.53;;;;;;;;;;5074186;28;20450;-71
2022/01/24 12:25:39;;;;;;;28.37;16.87;;;;;;;;;;5074345;28;20480;-71
2022/01/24 12:28:17;;;;;;;24.43;16.77;;;;;;;;;;5074162;28;20455;-71
2022/01/24 12:31:00;;;;;;;25.87;16.60;;;;;;;;;;5074759;28;20450;-71
2022/01/24 12:33:31;;;;;;;26.00;15.90;;;;;;;;;;5074207;28;20499;-71
2022/01/24 12:35:58;;;;;;;20.30;15.27;;;;;;;;;;5074519;28;20484;-72
2022/01/24 12:38:26;;;;;;;27.40;15.93;;;;;;;;;;5074286;28;20955;-72
2022/01/24 12:41:08;;;;;;;20.53;14.27;;;;;;;;;;5074243;28;20447;-72
2022/01/24 12:43:52;;;;;;;26.03;15.00;;;;;;;;;;5073554;28;20462;-72
2022/01/24 12:46:20;;;;;;;20.10;10.60;;;;;;;;;;5074305;28;20479;-72
2022/01/24 12:48:48;;;;;;;18.80;11.60;;;;;;;;;;5073792;28;20513;-72
2022/01/24 12:51:16;;;;;;;18.27;12.73;;;;;;;;;;5074205;28;20927;-72
2022/01/24 12:53:44;;;;;;;18.77;11.23;;;;;;;;;;5073622;28;20539;-72
2022/01/24 12:56:13;;;;;;;21.10;12.50;;;;;;;;;;5074126;28;21098;-72
2022/01/24 12:58:42;;;;;;;20.37;14.43;;;;;;;;;;5074012;28;20455;-73
2022/01/24 13:01:21;;;;;;;21.63;12.90;;;;;;;;;;5088699;28;20831;-72
2022/01/24 13:03:50;;;;;;;16.30;10.83;;;;;;;;;;5093932;28;20442;-72
2022/01/24 13:06:18;;;;;;;20.67;12.03;;;;;;;;;;5093559;28;20455;-72
2022/01/24 13:09:00;;;;;;;11.50;7.20;;;;;;;;;;5094104;28;20435;-72
2022/01/24 13:11:28;;;;;;;9.27;5.20;;;;;;;;;;5093883;28;20435;-72
2022/01/24 13:14:04;;;;;;;14.43;7.87;;;;;;;;;;5093920;28;20482;-72
2022/01/24 13:22:17;;;;;;;11.30;6.90;;;;;;;;;;5093260;28;20605;-72
2022/01/24 13:24:59;;;;;;;18.30;11.40;;;;;;;;;;5093795;28;21015;-72
2022/01/24 13:27:36;;;;;;;15.40;8.80;;;;;;;;;;5093666;28;20446;-72
2022/01/24 13:30:03;;;;;;;11.87;7.50;;;;;;;;;;5093851;28;20442;-73
2022/01/24 13:32:58;;;;;;;14.13;8.20;;;;;;;;;;5093457;28;20446;-72
2022/01/24 13:35:28;;;;;;;15.97;8.60;;;;;;;;;;5057589;28;20479;-72
2022/01/24 13:37:56;;;;;;;11.60;7.10;;;;;;;;;;5093579;28;20450;-73
2022/01/24 13:40:33;;;;;;;8.50;5.97;;;;;;;;;;5093304;28;20455;-72
2022/01/24 13:43:03;;;;;;;11.93;7.30;;;;;;;;;;5093333;28;20517;-72
2022/01/24 13:45:34;;;;;;;12.27;6.60;;;;;;;;;;5093017;28;20466;-72
2022/01/24 13:48:02;;;;;;;13.10;7.00;;;;;;;;;;5093493;28;20831;-72
2022/01/24 13:50:29;;;;;;;13.60;7.27;;;;;;;;;;5093301;28;20446;-72
2022/01/24 13:52:56;;;;;;;11.53;6.63;;;;;;;;;;5093428;28;20482;-72
2022/01/24 13:55:24;;;;;;;12.17;7.10;;;;;;;;;;5093212;28;20497;-72
2022/01/24 13:57:52;;;;;;;12.93;8.47;;;;;;;;;;5093172;28;20446;-72
2022/01/24 14:00:24;;;;;;;14.67;9.93;;;;;;;;;;5093185;28;20466;-72
2022/01/24 14:03:05;;;;;;;14.20;7.93;;;;;;;;;;5093224;28;20451;-73
2022/01/24 14:05:32;;;;;;;12.43;10.17;;;;;;;;;;5092768;28;20481;-72
2022/01/24 14:08:13;;;;;;;11.17;6.83;;;;;;;;;;5093393;28;20815;-72
2022/01/24 14:10:40;;;;;;;21.33;8.87;;;;;;;;;;5093031;28;20477;-72
2022/01/24 14:13:08;;;;;;;15.73;8.37;;;;;;;;;;5093288;28;20490;-72
2022/01/24 14:15:45;;;;;;;12.83;7.70;;;;;;;;;;5092799;28;20856;-74
2022/01/24 14:18:26;;;;;;;14.63;8.30;;;;;;;;;;5091298;28;20460;-73
2022/01/24 14:20:54;;;;;;;13.90;7.83;;;;;;;;;;5091257;28;20555;-72
2022/01/24 14:23:22;;;;;;;14.23;8.83;;;;;;;;;;5091498;28;20828;-72
2022/01/24 14:25:49;;;;;;;11.87;7.00;;;;;;;;;;5091419;28;20486;-74
2022/01/24 14:28:18;;;;;;;12.90;8.77;;;;;;;;;;5091688;28;20450;-73
2022/01/24 14:30:47;;;;;;;13.20;8.03;;;;;;;;;;5091672;28;21013;-73
2022/01/24 14:33:16;;;;;;;11.27;7.40;;;;;;;;;;5091438;28;20482;-73
2022/01/24 14:35:50;;;;;;;12.90;7.53;;;;;;;;;;5095049;28;20490;-72
2022/01/24 14:38:31;;;;;;;14.67;8.50;;;;;;;;;;5095550;28;20442;-72
2022/01/24 14:41:01;;;;;;;12.90;8.37;;;;;;;;;;5095344;28;20459;-72
2022/01/24 14:46:16;;;;;;;13.77;8.67;;;;;;;;;;5095238;28;20437;-72
2022/01/24 14:48:44;;;;;;;15.13;9.27;;;;;;;;;;5096385;28;20454;-73
2022/01/24 14:51:11;;;;;;;12.80;8.47;;;;;;;;;;5096430;28;20450;-73
2022/01/24 14:53:38;;;;;;;14.00;9.27;;;;;;;;;;5093866;28;20979;-72
2022/01/24 14:56:06;;;;;;;22.77;10.80;;;;;;;;;;5096107;28;20474;-73
2022/01/24 14:58:33;;;;;;;14.50;11.43;;;;;;;;;;5096129;28;20457;-73
2022/01/24 15:01:00;;;;;;;14.20;9.80;;;;;;;;;;5095768;28;20446;-73
2022/01/24 15:03:28;;;;;;;15.13;9.77;;;;;;;;;;5096267;28;20804;-73
2022/01/24 15:05:57;;;;;;;12.30;8.10;;;;;;;;;;5095932;28;20458;-73
2022/01/24 15:08:24;;;;;;;91.37;46.13;;;;;;;;;;5096364;28;20546;-73
2022/01/24 15:10:51;;;;;;;22.70;12.60;;;;;;;;;;5096386;28;20447;-73
2022/01/24 15:13:21;;;;;;;14.90;9.13;;;;;;;;;;5096035;28;20479;-73
2022/01/24 15:15:56;;;;;;;9.53;7.90;;;;;;;;;;5096157;28;20835;-73
2022/01/24 15:26:35;;;;;;;17.87;10.40;;;;;;;;;;5095591;28;20466;-73
2022/01/24 15:29:02;;;;;;;16.33;9.57;;;;;;;;;;5095824;28;20447;-73
2022/01/24 15:31:29;;;;;;;14.80;8.67;;;;;;;;;;5095793;28;20978;-73
2022/01/24 15:33:56;;;;;;;14.87;9.03;;;;;;;;;;5095702;28;20482;-73
2022/01/24 15:36:25;;;;;;;15.77;9.07;;;;;;;;;;5095495;28;20466;-73
2022/01/24 15:38:55;;;;;;;17.73;10.20;;;;;;;;;;5095789;28;20991;-73
2022/01/24 15:41:23;;;;;;;14.23;10.53;;;;;;;;;;5095829;28;20987;-73
2022/01/24 15:44:00;;;;;;;18.40;10.47;;;;;;;;;;5095510;28;20450;-73
2022/01/24 15:49:12;;;;;;;18.23;9.30;;;;;;;;;;5095673;28;20456;-73
2022/01/24 15:51:40;;;;;;;11.90;8.70;;;;;;;;;;5095516;28;20886;-73
2022/01/24 15:54:08;;;;;;;14.17;9.13;;;;;;;;;;5095435;28;20483;-73
2022/01/24 15:59:19;;;;;;;16.10;8.10;;;;;;;;;;5095352;28;20547;-73
2022/01/24 16:01:47;;;;;;;16.30;10.50;;;;;;;;;;5095257;28;20451;-73